Time;durP1;ratioP1;P1;durP2;ratioP2;P2;SDS_P1;SDS_P2;PMS_P1;PMS_P2;Temp;Humidity;BMP_temperature;BMP_pressure;BME280_temperature;BME280_humidity;BME280_pressure;Samples;Min_cycle;Max_cycle;Signal;HPM_P1;HPM_P2
2022/10/24 06:15:35;;;;;;;24.50;19.60;;;;;;;10.63;91.82;99899.36;96553;1324;635256;-77
2022/10/24 06:18:03;;;;;;;24.80;19.40;;;;;;;10.60;91.39;99904.36;99220;1301;94295;-78
2022/10/24 06:20:30;;;;;;;28.20;19.60;;;;;;;10.55;91.12;99900.85;99036;1300;137269;-77
2022/10/24 06:22:57;;;;;;;27.40;20.10;;;;;;;10.51;91.04;99903.48;99132;1308;95973;-78
2022/10/24 06:25:24;;;;;;;25.20;19.20;;;;;;;10.47;91.04;99897.39;99431;1299;105657;-78
2022/10/24 06:27:51;;;;;;;25.80;17.80;;;;;;;10.46;91.06;99891.86;98951;1302;137427;-76
2022/10/24 06:30:20;;;;;;;26.70;19.20;;;;;;;10.45;91.04;99896.59;99347;1296;94458;-79
2022/10/24 06:32:47;;;;;;;23.50;18.90;;;;;;;10.43;91.07;99889.35;99350;1297;138149;-77
2022/10/24 06:35:14;;;;;;;24.60;19.20;;;;;;;10.43;91.13;99880.14;99508;1294;94401;-77
2022/10/24 06:37:42;;;;;;;25.30;19.40;;;;;;;10.42;91.13;99871.65;99514;1303;137694;-77
2022/10/24 06:40:14;;;;;;;25.40;19.10;;;;;;;10.41;91.19;99868.20;99515;1305;108880;-79
2022/10/24 06:42:41;;;;;;;25.20;19.20;;;;;;;10.41;91.05;99864.38;99490;1301;95120;-82
2022/10/24 06:45:11;;;;;;;29.50;20.20;;;;;;;10.42;91.17;99868.52;99378;1298;138094;-78
2022/10/24 06:47:38;;;;;;;24.30;18.90;;;;;;;10.42;91.29;99872.87;99401;1299;95062;-77
2022/10/24 06:50:06;;;;;;;25.00;19.70;;;;;;;10.42;91.29;99891.98;99317;1296;139161;-79
2022/10/24 06:52:33;;;;;;;25.60;19.80;;;;;;;10.43;91.32;99908.48;100915;1305;107152;-77
2022/10/24 06:55:01;;;;;;;24.30;19.70;;;;;;;10.43;91.36;99914.02;100461;1302;95123;-76
2022/10/24 06:57:28;;;;;;;28.00;20.40;;;;;;;10.44;91.48;99916.63;99204;1290;138005;-79
2022/10/24 06:59:56;;;;;;;28.10;19.50;;;;;;;10.44;91.33;99920.45;99422;1298;95247;-78
2022/10/24 07:02:23;;;;;;;27.40;20.30;;;;;;;10.44;91.34;99927.21;99207;1289;137697;-76
2022/10/24 07:04:51;;;;;;;27.00;20.50;;;;;;;10.43;91.20;99937.51;99570;1293;107519;-76
2022/10/24 07:07:20;;;;;;;27.80;19.40;;;;;;;10.43;91.37;99937.16;99614;1301;94812;-78
2022/10/24 07:09:54;;;;;;;23.10;18.90;;;;;;;10.41;91.46;99926.27;99448;1301;139503;-77
2022/10/24 07:12:21;;;;;;;26.00;19.00;;;;;;;10.42;91.44;99930.77;101293;1299;93288;-77
2022/10/24 07:14:48;;;;;;;27.30;19.30;;;;;;;10.40;91.27;99938.11;101156;1301;140040;-77
2022/10/24 07:17:16;;;;;;;25.10;19.10;;;;;;;10.40;91.37;99948.36;101212;1292;107377;-79
2022/10/24 07:19:43;;;;;;;25.20;18.50;;;;;;;10.39;91.25;99945.77;101048;1299;139170;-75
2022/10/24 07:22:11;;;;;;;25.20;17.50;;;;;;;10.42;91.31;99958.92;101288;1298;108223;-79
2022/10/24 07:24:38;;;;;;;22.80;19.00;;;;;;;10.44;91.27;99954.48;100613;1292;95144;-78
2022/10/24 07:27:05;;;;;;;28.50;19.50;;;;;;;10.48;91.25;99949.66;99722;1290;137850;-75
2022/10/24 07:29:32;;;;;;;26.80;19.10;;;;;;;10.53;91.35;99946.67;99808;1301;107233;-76
2022/10/24 07:32:00;;;;;;;27.50;19.50;;;;;;;10.58;91.34;99955.52;99744;1291;137947;-78
2022/10/24 07:34:28;;;;;;;25.70;19.30;;;;;;;10.63;91.15;99943.89;99792;1292;107365;-77
2022/10/24 07:36:55;;;;;;;26.80;19.30;;;;;;;10.66;91.04;99933.86;99802;1284;95679;-76
2022/10/24 07:39:22;;;;;;;25.40;19.40;;;;;;;10.68;90.86;99921.08;99649;1285;138400;-77
2022/10/24 07:41:49;;;;;;;26.50;19.60;;;;;;;10.70;90.80;99911.98;99886;1292;108406;-78
2022/10/24 07:44:16;;;;;;;28.70;19.40;;;;;;;10.72;90.75;99912.39;99743;1292;139333;-78
2022/10/24 07:46:43;;;;;;;27.70;19.20;;;;;;;10.74;90.60;99909.52;99791;1291;107501;-80
2022/10/24 07:49:11;;;;;;;26.70;18.90;;;;;;;10.73;90.33;99916.70;99751;1292;95134;-79
2022/10/24 07:51:38;;;;;;;24.60;20.20;;;;;;;10.72;90.32;99913.80;99646;1289;138517;-78
2022/10/24 07:54:05;;;;;;;29.60;19.70;;;;;;;10.75;90.34;99913.16;99674;1294;108989;-77
2022/10/24 07:56:32;;;;;;;26.20;19.00;;;;;;;10.77;90.44;99912.72;99582;1286;137814;-77
2022/10/24 07:59:01;;;;;;;25.60;19.10;;;;;;;10.83;90.45;99922.92;101394;1298;107899;-77
2022/10/24 08:01:39;;;;;;;24.80;18.80;;;;;;;10.86;90.13;99913.23;100677;1299;138431;-76
2022/10/24 08:04:07;;;;;;;26.60;20.00;;;;;;;10.87;90.00;99910.07;99881;1299;107683;-77
2022/10/24 08:06:34;;;;;;;25.10;19.10;;;;;;;10.88;90.00;99912.98;99829;1297;107489;-77
2022/10/24 08:09:02;;;;;;;28.10;19.10;;;;;;;10.92;90.05;99906.77;99768;1298;138086;-79
2022/10/24 08:11:31;;;;;;;25.30;19.60;;;;;;;10.95;90.13;99905.08;99873;1294;107961;-75
2022/10/24 08:13:58;;;;;;;24.50;19.00;;;;;;;10.99;90.07;99898.69;99600;1292;137960;-78
2022/10/24 08:16:26;;;;;;;24.50;18.70;;;;;;;11.03;90.08;99897.99;99933;1294;107919;-77
2022/10/24 08:18:56;;;;;;;23.00;18.10;;;;;;;11.09;89.89;99897.23;99761;1292;107818;-78
2022/10/24 08:21:24;;;;;;;24.10;18.30;;;;;;;11.12;89.82;99897.77;99786;1292;140843;-78
2022/10/24 08:23:54;;;;;;;24.80;19.50;;;;;;;11.14;89.55;99901.90;99845;1281;108785;-78
2022/10/24 08:26:23;;;;;;;28.10;18.60;;;;;;;11.15;89.56;99896.81;99628;1292;137903;-78
2022/10/24 08:28:52;;;;;;;26.00;18.40;;;;;;;11.18;89.71;99894.42;99647;1284;108703;-78
2022/10/24 08:31:20;;;;;;;24.90;18.50;;;;;;;11.22;89.63;99887.11;99648;1295;107943;-76
2022/10/24 08:33:48;;;;;;;25.10;17.90;;;;;;;11.26;89.58;99888.70;99544;1286;139184;-77
2022/10/24 08:36:20;;;;;;;25.20;18.60;;;;;;;11.27;89.42;99890.03;99710;1292;106979;-78
2022/10/24 08:38:47;;;;;;;23.40;17.00;;;;;;;11.28;89.33;99891.41;99755;1285;138282;-78
2022/10/24 08:41:20;;;;;;;23.90;18.50;;;;;;;11.30;89.47;99887.99;99849;1293;108262;-78
2022/10/24 08:43:47;;;;;;;23.60;18.60;;;;;;;11.34;89.50;99890.84;99573;1290;138847;-77
2022/10/24 08:46:32;;;;;;;25.30;18.30;;;;;;;11.41;89.63;99898.36;99531;1294;95121;-79
2022/10/24 08:49:05;;;;;;;24.60;17.90;;;;;;;11.50;89.44;99910.01;99521;1292;107878;-75
2022/10/24 08:51:40;;;;;;;22.90;17.60;;;;;;;11.58;89.36;99905.52;99520;1292;138114;-76
2022/10/24 08:54:11;;;;;;;26.20;18.80;;;;;;;11.65;89.17;99901.20;99757;1288;108435;-76
2022/10/24 08:56:38;;;;;;;26.40;17.50;;;;;;;11.73;89.10;99899.46;99675;1293;137856;-75
2022/10/24 08:59:09;;;;;;;24.50;16.90;;;;;;;11.85;89.10;99897.94;99988;1287;95216;-78
2022/10/24 09:01:42;;;;;;;26.60;17.70;;;;;;;12.01;88.54;99892.86;99890;1298;107290;-75
2022/10/24 09:04:14;;;;;;;23.30;16.80;;;;;;;12.19;88.08;99896.29;99909;1292;95167;-75
2022/10/24 09:06:41;;;;;;;27.60;17.60;;;;;;;12.39;87.78;99896.79;99960;1291;108280;-76
2022/10/24 09:09:17;;;;;;;28.50;17.60;;;;;;;12.53;87.20;99892.27;99810;1295;138923;-76
2022/10/24 09:11:50;;;;;;;24.50;17.30;;;;;;;12.65;86.63;99894.89;100011;1291;95216;-73
2022/10/24 09:14:19;;;;;;;26.70;16.90;;;;;;;12.79;86.27;99892.86;99775;1283;138101;-75
2022/10/24 09:16:49;;;;;;;23.20;15.90;;;;;;;12.93;86.35;99895.85;99949;1295;94999;-73
2022/10/24 09:19:19;;;;;;;21.10;15.10;;;;;;;13.00;85.61;99890.94;99863;1285;109463;-74
2022/10/24 09:21:47;;;;;;;26.20;16.10;;;;;;;13.07;85.28;99884.84;99566;1292;138037;-75
2022/10/24 09:24:28;;;;;;;26.40;16.30;;;;;;;13.20;85.33;99881.80;99719;1293;95563;-77
2022/10/24 09:26:56;;;;;;;22.80;15.10;;;;;;;13.36;85.28;99877.89;99661;1292;137661;-77
2022/10/24 09:29:23;;;;;;;22.70;15.30;;;;;;;13.63;85.61;99880.20;99804;1296;95129;-77
2022/10/24 09:31:50;;;;;;;21.10;15.20;;;;;;;13.89;84.95;99878.31;99769;1289;137907;-77
2022/10/24 09:34:18;;;;;;;23.50;16.00;;;;;;;14.06;83.67;99886.39;100000;1296;107412;-80
2022/10/24 09:36:46;;;;;;;24.30;14.90;;;;;;;14.12;83.23;99887.09;99933;1289;95154;-77
2022/10/24 09:39:31;;;;;;;23.60;15.60;;;;;;;14.12;82.66;99884.30;99824;1289;138014;-77
2022/10/24 09:41:59;;;;;;;20.10;15.50;;;;;;;14.06;82.39;99882.35;99949;1288;95124;-75
2022/10/24 09:44:39;;;;;;;23.00;15.40;;;;;;;14.02;82.56;99877.53;99857;1289;137021;-76
2022/10/24 09:47:22;;;;;;;19.40;14.80;;;;;;;14.02;82.48;99876.30;100012;1281;107318;-75
2022/10/24 09:49:49;;;;;;;20.70;13.90;;;;;;;14.03;82.42;99877.45;99947;1294;138314;-76
2022/10/24 09:52:22;;;;;;;20.20;15.10;;;;;;;14.02;82.33;99876.48;100066;1291;107370;-75
2022/10/24 09:55:15;;;;;;;20.60;14.70;;;;;;;14.01;82.04;99877.56;100004;1289;95594;-74
2022/10/24 09:57:42;;;;;;;21.90;14.70;;;;;;;14.01;82.09;99872.85;99917;1289;138467;-78
2022/10/24 10:00:23;;;;;;;24.40;15.30;;;;;;;14.03;81.94;99877.11;100039;1287;107469;-78
2022/10/24 10:03:01;;;;;;;21.10;14.90;;;;;;;14.04;82.10;99878.12;101404;1294;137907;-78
2022/10/24 10:05:30;;;;;;;19.40;15.10;;;;;;;14.08;82.23;99875.59;101549;1281;107271;-78
2022/10/24 10:07:59;;;;;;;26.20;15.60;;;;;;;14.13;82.17;99865.20;101422;1296;138221;-77
2022/10/24 10:10:36;;;;;;;20.00;14.40;;;;;;;14.19;82.18;99864.16;101543;1296;107576;-79
2022/10/24 10:13:17;;;;;;;21.00;15.10;;;;;;;14.28;82.18;99872.30;101539;1288;107085;-78
2022/10/24 10:15:50;;;;;;;20.60;14.60;;;;;;;14.36;81.87;99872.90;101415;1290;139197;-77
2022/10/24 10:18:32;;;;;;;21.50;15.20;;;;;;;14.39;81.53;99869.61;100174;1288;107549;-78
2022/10/24 10:21:09;;;;;;;25.80;15.10;;;;;;;14.43;81.45;99862.40;101465;1295;137274;-76
2022/10/24 10:23:38;;;;;;;25.20;15.40;;;;;;;14.45;81.11;99863.17;100390;1285;109742;-79
2022/10/24 10:26:15;;;;;;;18.90;16.30;;;;;;;14.48;81.19;99861.77;99905;1291;137814;-78
2022/10/24 10:28:51;;;;;;;27.50;15.50;;;;;;;14.51;81.25;99864.39;100027;1289;96445;-77
2022/10/24 10:31:22;;;;;;;19.60;14.60;;;;;;;14.60;80.96;99865.34;100058;1291;106753;-76
2022/10/24 10:34:03;;;;;;;19.30;14.30;;;;;;;14.68;80.64;99867.35;99933;1288;138405;-73
2022/10/24 10:36:35;;;;;;;25.60;14.40;;;;;;;14.73;80.64;99869.32;99888;1281;109316;-76
2022/10/24 10:39:20;;;;;;;24.50;14.50;;;;;;;14.88;80.79;99867.83;99815;1289;138612;-76
2022/10/24 10:41:55;;;;;;;22.80;14.20;;;;;;;15.08;80.88;99859.64;99902;1284;96920;-75
2022/10/24 10:44:42;;;;;;;20.80;14.20;;;;;;;15.28;80.56;99854.14;99871;1288;137505;-79
2022/10/24 10:47:34;;;;;;;20.60;14.10;;;;;;;15.45;80.42;99852.98;99982;1285;96559;-75
2022/10/24 10:50:02;;;;;;;22.50;14.40;;;;;;;15.61;80.26;99854.67;99845;1289;137555;-75
2022/10/24 10:52:39;;;;;;;23.00;14.50;;;;;;;15.72;79.43;99856.85;99995;1289;107540;-75
2022/10/24 10:55:21;;;;;;;18.60;15.20;;;;;;;15.77;78.87;99864.79;101567;1288;94548;-75
2022/10/24 10:57:56;;;;;;;20.60;14.90;;;;;;;15.71;78.46;99866.52;101335;1291;137635;-76
2022/10/24 11:00:29;;;;;;;19.80;14.00;;;;;;;15.67;78.72;99867.95;101457;1288;94650;-76
2022/10/24 11:03:15;;;;;;;21.40;13.60;;;;;;;15.66;78.79;99868.27;101429;1288;139773;-76
2022/10/24 11:05:57;;;;;;;18.90;13.60;;;;;;;15.67;78.81;99865.55;100545;1288;107462;-81
2022/10/24 11:08:59;;;;;;;17.30;13.20;;;;;;;15.68;78.64;99864.42;99951;1294;138207;-74
2022/10/24 11:11:31;;;;;;;22.20;13.80;;;;;;;15.68;78.48;99869.00;99826;1297;107913;-74
2022/10/24 11:14:04;;;;;;;23.60;13.20;;;;;;;15.67;78.55;99871.64;99842;1289;138079;-74
2022/10/24 11:16:33;;;;;;;21.80;14.50;;;;;;;15.74;79.15;99860.41;100010;1282;110344;-76
2022/10/24 11:19:05;;;;;;;21.00;14.10;;;;;;;15.82;79.47;99859.40;100041;1283;107735;-76
2022/10/24 11:21:35;;;;;;;20.00;12.80;;;;;;;15.92;79.38;99856.86;99941;1289;137513;-76
2022/10/24 11:24:09;;;;;;;18.90;12.30;;;;;;;16.04;79.47;99859.46;99907;1281;108240;-77
2022/10/24 11:26:43;;;;;;;18.90;11.60;;;;;;;16.14;78.76;99861.14;99828;1297;138257;-77
2022/10/24 11:29:18;;;;;;;16.80;11.00;;;;;;;16.14;78.44;99856.05;99988;1289;110821;-77
2022/10/24 11:31:49;;;;;;;16.20;10.10;;;;;;;16.18;78.36;99855.80;101422;1284;138252;-78
2022/10/24 11:34:21;;;;;;;15.20;10.20;;;;;;;16.24;78.16;99857.14;101392;1289;94585;-78
2022/10/24 11:36:55;;;;;;;18.30;10.90;;;;;;;16.30;77.88;99860.30;99972;1281;107894;-77
2022/10/24 11:39:27;;;;;;;17.90;10.10;;;;;;;16.33;77.68;99852.21;99675;1291;137584;-77
2022/10/24 11:42:01;;;;;;;16.60;11.20;;;;;;;16.35;77.43;99844.61;99805;1283;110519;-78
2022/10/24 11:44:38;;;;;;;16.30;10.30;;;;;;;16.41;77.68;99845.09;99545;1283;139541;-78
2022/10/24 11:47:30;;;;;;;13.10;9.30;;;;;;;16.42;76.92;99844.83;101112;1292;94449;-77
2022/10/24 11:50:04;;;;;;;15.00;9.50;;;;;;;16.41;76.86;99849.10;99656;1289;137331;-77
2022/10/24 11:52:37;;;;;;;15.20;9.80;;;;;;;16.37;76.37;99846.55;99817;1290;96394;-73
2022/10/24 11:55:12;;;;;;;16.40;9.50;;;;;;;16.33;76.77;99838.72;99822;1296;109087;-75
2022/10/24 11:57:43;;;;;;;18.60;9.10;;;;;;;16.39;76.92;99839.25;99727;1290;139083;-75
2022/10/24 12:00:21;;;;;;;13.20;8.60;;;;;;;16.51;76.96;99839.38;101354;1290;95378;-73
2022/10/24 12:03:37;;;;;;;15.30;8.70;;;;;;;16.70;76.72;99835.02;101215;1291;138933;-75
2022/10/24 12:06:23;;;;;;;13.20;8.50;;;;;;;16.97;76.76;99827.47;100907;1295;94850;-75
2022/10/24 12:09:07;;;;;;;13.80;8.50;;;;;;;17.23;76.54;99824.16;100414;1303;137976;-75
2022/10/24 12:11:56;;;;;;;12.90;9.20;;;;;;;17.48;75.76;99830.39;99482;1301;107833;-74
2022/10/24 12:14:42;;;;;;;14.40;7.70;;;;;;;17.71;75.74;99823.08;99465;1293;137667;-76
2022/10/24 12:17:30;;;;;;;17.10;8.60;;;;;;;17.99;75.80;99824.48;99550;1290;108857;-74
2022/10/24 12:20:01;;;;;;;13.20;7.10;;;;;;;18.26;74.95;99812.35;99484;1287;137902;-74
2022/10/24 12:22:35;;;;;;;13.10;7.50;;;;;;;18.45;74.24;99812.20;99690;1294;111044;-74
2022/10/24 12:25:17;;;;;;;16.10;8.80;;;;;;;18.62;73.04;99814.36;99577;1292;106913;-74
2022/10/24 12:27:44;;;;;;;13.10;7.90;;;;;;;18.64;71.88;99806.66;99466;1293;137543;-73
2022/10/24 12:30:23;;;;;;;13.70;8.10;;;;;;;18.65;71.96;99808.50;99530;1294;107605;-77
2022/10/24 12:32:53;;;;;;;10.40;6.80;;;;;;;18.63;71.37;99809.55;99507;1294;138573;-72
2022/10/24 12:35:51;;;;;;;11.00;6.50;;;;;;;18.64;71.50;99799.24;99572;1291;109343;-72
2022/10/24 12:39:08;;;;;;;12.20;6.60;;;;;;;18.84;72.03;99800.63;99486;1294;137373;-73
2022/10/24 12:41:41;;;;;;;14.70;7.20;;;;;;;19.04;71.95;99794.02;99657;1293;96483;-72
2022/10/24 12:44:53;;;;;;;14.10;7.10;;;;;;;19.17;70.69;99796.41;99957;1290;137240;-73
2022/10/24 12:47:30;;;;;;;12.00;7.40;;;;;;;19.07;69.21;99794.32;100046;1291;96352;-73
2022/10/24 12:49:58;;;;;;;10.90;7.30;;;;;;;18.96;68.86;99793.04;99892;1292;137372;-72
2022/10/24 12:53:03;;;;;;;8.80;6.40;;;;;;;18.85;68.67;99791.56;100008;1290;107713;-74
2022/10/24 12:55:52;;;;;;;11.00;6.80;;;;;;;18.70;68.37;99789.32;99977;1282;96472;-73
2022/10/24 12:58:28;;;;;;;15.30;6.80;;;;;;;18.58;68.37;99785.61;101588;1291;108420;-74
2022/10/24 13:01:00;;;;;;;12.40;6.50;;;;;;;18.49;68.79;99774.97;101581;1295;94900;-72
2022/10/24 13:03:52;;;;;;;11.80;6.10;;;;;;;18.55;68.65;99773.50;101461;1291;139059;-74
2022/10/24 13:06:26;;;;;;;9.90;6.10;;;;;;;18.46;68.14;99769.02;101106;1289;107791;-75
2022/10/24 13:09:23;;;;;;;13.80;7.30;;;;;;;18.42;68.36;99768.75;99913;1288;139291;-75
2022/10/24 13:12:06;;;;;;;12.40;6.70;;;;;;;18.41;68.18;99772.05;100010;1291;107551;-76
2022/10/24 13:15:15;;;;;;;19.00;6.60;;;;;;;18.32;67.86;99770.21;99956;1283;137398;-76
2022/10/24 13:17:49;;;;;;;12.10;6.50;;;;;;;18.27;68.39;99773.55;99906;1289;111421;-74
2022/10/24 13:20:22;;;;;;;13.80;6.20;;;;;;;18.31;67.70;99776.09;99839;1289;137409;-75
2022/10/24 13:22:51;;;;;;;11.50;6.70;;;;;;;18.33;68.11;99777.06;100023;1291;96467;-76
2022/10/24 13:25:32;;;;;;;13.30;7.20;;;;;;;18.31;68.29;99775.77;99962;1284;108519;-74
2022/10/24 13:28:33;;;;;;;10.80;6.90;;;;;;;18.24;67.90;99779.63;99985;1282;137000;-75
2022/10/24 13:31:31;;;;;;;9.10;6.80;;;;;;;18.19;67.94;99781.23;100034;1284;109437;-75
2022/10/24 13:34:14;;;;;;;10.40;6.70;;;;;;;18.07;67.69;99781.67;99852;1281;137170;-74
2022/10/24 13:36:43;;;;;;;11.30;6.90;;;;;;;17.94;67.80;99776.78;100636;1290;96511;-77
2022/10/24 13:39:16;;;;;;;11.50;7.00;;;;;;;17.84;67.86;99780.52;100000;1290;138918;-77
2022/10/24 13:41:48;;;;;;;10.50;6.80;;;;;;;17.76;68.41;99778.58;100058;1290;96471;-74
2022/10/24 13:44:25;;;;;;;11.30;7.00;;;;;;;17.72;68.68;99777.05;99953;1297;138398;-75
2022/10/24 13:46:58;;;;;;;15.30;6.90;;;;;;;17.69;68.43;99781.73;99994;1282;108876;-74
2022/10/24 13:49:31;;;;;;;15.90;7.30;;;;;;;17.61;68.24;99780.30;99937;1282;96362;-76
2022/10/24 13:52:03;;;;;;;9.30;7.00;;;;;;;17.52;68.39;99774.05;99726;1284;139118;-76
2022/10/24 13:54:34;;;;;;;11.60;8.00;;;;;;;17.47;68.79;99774.04;99827;1291;96495;-75
2022/10/24 13:57:01;;;;;;;8.70;7.20;;;;;;;17.43;69.04;99774.46;99727;1284;137878;-76
2022/10/24 13:59:34;;;;;;;15.60;7.70;;;;;;;17.40;68.99;99776.27;99867;1284;107493;-74
2022/10/24 14:02:05;;;;;;;10.50;7.70;;;;;;;17.36;69.09;99776.92;99835;1289;137390;-76
2022/10/24 14:04:34;;;;;;;12.20;7.20;;;;;;;17.29;69.13;99775.79;100007;1291;107988;-75
2022/10/24 14:07:08;;;;;;;11.40;8.00;;;;;;;17.21;69.14;99778.25;99958;1284;96499;-75
2022/10/24 14:09:42;;;;;;;9.00;7.40;;;;;;;17.14;69.33;99772.09;99734;1282;137443;-76
2022/10/24 14:12:20;;;;;;;11.00;6.90;;;;;;;17.10;69.43;99774.95;99949;1289;107048;-65
2022/10/24 14:14:50;;;;;;;11.60;7.00;;;;;;;17.03;69.54;99768.39;100219;1287;138256;-66
2022/10/24 14:17:24;;;;;;;10.70;7.30;;;;;;;16.99;69.64;99769.02;99957;1288;108459;-66
2022/10/24 14:19:56;;;;;;;9.00;7.40;;;;;;;16.98;69.96;99774.37;100005;1282;138117;-66
2022/10/24 14:22:26;;;;;;;13.50;7.50;;;;;;;16.96;69.98;99771.16;100395;1289;111193;-66
2022/10/24 14:24:54;;;;;;;14.50;8.10;;;;;;;16.92;70.22;99769.16;101540;1296;106753;-66
2022/10/24 14:27:22;;;;;;;12.80;8.10;;;;;;;16.87;70.20;99769.61;101521;1289;137453;-66
2022/10/24 14:29:59;;;;;;;11.30;7.50;;;;;;;16.82;70.49;99770.45;101576;1288;107752;-67
2022/10/24 14:32:28;;;;;;;10.60;8.00;;;;;;;16.79;70.68;99777.02;100163;1281;137671;-66
2022/10/24 14:34:58;;;;;;;12.20;8.30;;;;;;;16.75;70.79;99779.59;100246;1294;110427;-66
2022/10/24 14:37:31;;;;;;;10.80;8.20;;;;;;;16.70;70.78;99783.42;100293;1295;108540;-66
2022/10/24 14:40:14;;;;;;;10.90;7.80;;;;;;;16.67;71.05;99792.38;101492;1288;138146;-66
2022/10/24 14:42:42;;;;;;;14.50;8.00;;;;;;;16.62;71.19;99791.44;101623;1296;107289;-66
2022/10/24 14:45:24;;;;;;;11.70;8.20;;;;;;;16.57;71.18;99789.27;101474;1281;139938;-66
2022/10/24 14:47:55;;;;;;;11.80;7.40;;;;;;;16.53;71.34;99788.34;101239;1296;110155;-66
2022/10/24 14:50:43;;;;;;;13.80;8.10;;;;;;;16.51;71.53;99793.89;100096;1294;140103;-66
2022/10/24 14:53:23;;;;;;;13.30;8.80;;;;;;;16.50;71.66;99788.84;100230;1291;96533;-66
2022/10/24 14:55:54;;;;;;;14.60;7.80;;;;;;;16.48;71.77;99792.14;100093;1289;137957;-66
2022/10/24 14:58:28;;;;;;;14.10;8.30;;;;;;;16.46;71.94;99789.81;100226;1291;96585;-66
2022/10/24 15:00:57;;;;;;;20.90;8.80;;;;;;;16.43;71.97;99793.02;100133;1288;111024;-65
2022/10/24 15:03:26;;;;;;;16.40;8.40;;;;;;;16.39;72.20;99792.03;100079;1290;137480;-66
2022/10/24 15:05:59;;;;;;;19.60;8.60;;;;;;;16.33;72.22;99796.61;101612;1289;94363;-66
2022/10/24 15:08:37;;;;;;;21.00;8.70;;;;;;;16.26;72.30;99794.79;100642;1288;138175;-66
2022/10/24 15:11:20;;;;;;;19.20;8.30;;;;;;;16.20;72.54;99794.97;100183;1289;96448;-65
2022/10/24 15:13:51;;;;;;;21.30;9.40;;;;;;;16.15;72.78;99791.26;100128;1285;138128;-66
2022/10/24 15:16:37;;;;;;;16.50;8.80;;;;;;;16.12;73.05;99791.09;100179;1295;108890;-65
2022/10/24 15:19:10;;;;;;;16.10;9.40;;;;;;;16.08;73.18;99793.77;101528;1281;94363;-65
2022/10/24 15:21:40;;;;;;;15.40;8.80;;;;;;;16.05;73.26;99793.29;101483;1288;138030;-66
2022/10/24 15:24:19;;;;;;;21.20;9.60;;;;;;;15.99;73.33;99793.83;101582;1296;94686;-66
2022/10/24 15:26:46;;;;;;;17.60;9.30;;;;;;;15.94;73.50;99794.11;101520;1288;138074;-67
2022/10/24 15:29:21;;;;;;;19.70;8.80;;;;;;;15.88;73.71;99794.89;101517;1296;108502;-66
2022/10/24 15:31:50;;;;;;;16.40;9.30;;;;;;;15.84;73.86;99797.92;100183;1289;138415;-67
2022/10/24 15:34:19;;;;;;;22.90;8.70;;;;;;;15.80;74.01;99792.19;100126;1290;108398;-66
2022/10/24 15:36:48;;;;;;;13.80;8.00;;;;;;;15.78;74.18;99791.41;100387;1291;96502;-66
2022/10/24 15:39:18;;;;;;;20.20;9.10;;;;;;;15.77;74.32;99795.92;101040;1288;138617;-67
2022/10/24 15:41:45;;;;;;;21.80;8.80;;;;;;;15.74;74.40;99795.89;101510;1281;107434;-66
2022/10/24 15:44:17;;;;;;;18.60;10.20;;;;;;;15.74;74.45;99796.79;100722;1288;138433;-66
2022/10/24 15:46:45;;;;;;;17.00;9.90;;;;;;;15.71;74.63;99799.02;101534;1289;107094;-66
2022/10/24 15:49:12;;;;;;;18.80;10.40;;;;;;;15.69;74.68;99799.52;101423;1290;94340;-67
2022/10/24 15:51:42;;;;;;;27.50;11.40;;;;;;;15.66;74.72;99804.77;101278;1291;138246;-77
2022/10/24 15:54:16;;;;;;;25.20;12.40;;;;;;;15.61;74.89;99800.66;101112;1292;107454;-77
2022/10/24 15:56:43;;;;;;;21.20;11.30;;;;;;;15.57;74.97;99802.16;99939;1293;138453;-77
2022/10/24 15:59:10;;;;;;;15.30;10.80;;;;;;;15.52;75.06;99799.81;99903;1289;108877;-76
2022/10/24 16:01:41;;;;;;;23.20;11.00;;;;;;;15.48;75.23;99800.76;101013;1292;96229;-75
2022/10/24 16:04:11;;;;;;;22.30;10.90;;;;;;;15.44;75.39;99806.45;101519;1287;110373;-77
2022/10/24 16:06:38;;;;;;;16.00;9.90;;;;;;;15.41;75.60;99806.92;101513;1296;107862;-79
2022/10/24 16:09:06;;;;;;;17.10;10.50;;;;;;;15.38;75.72;99805.39;101460;1296;138342;-78
2022/10/24 16:11:33;;;;;;;19.60;10.30;;;;;;;15.35;75.88;99806.25;100403;1281;108332;-81
2022/10/24 16:14:01;;;;;;;19.50;10.40;;;;;;;15.31;75.94;99801.58;99703;1281;138461;-78
2022/10/24 16:16:28;;;;;;;17.70;11.00;;;;;;;15.31;76.08;99797.03;99882;1288;110993;-80
2022/10/24 16:18:55;;;;;;;21.60;11.10;;;;;;;15.30;76.17;99798.70;99888;1281;107024;-77
2022/10/24 16:21:22;;;;;;;16.60;10.70;;;;;;;15.28;76.39;99796.34;99904;1291;138253;-78
2022/10/24 16:23:49;;;;;;;20.70;11.00;;;;;;;15.24;76.47;99797.95;99928;1288;109497;-84
2022/10/24 16:26:21;;;;;;;18.50;11.80;;;;;;;15.23;76.61;99803.83;99944;1289;138273;-82
2022/10/24 16:28:49;;;;;;;21.80;11.20;;;;;;;15.21;76.84;99800.09;99941;1281;109861;-82
2022/10/24 16:31:18;;;;;;;17.50;10.30;;;;;;;15.20;76.90;99805.89;99932;1288;107826;-78
2022/10/24 16:33:45;;;;;;;23.50;11.30;;;;;;;15.19;76.95;99806.00;99872;1288;137971;-81
2022/10/24 16:36:12;;;;;;;16.20;9.90;;;;;;;15.19;77.18;99809.34;100009;1281;108044;-80
2022/10/24 16:38:40;;;;;;;18.30;11.00;;;;;;;15.19;77.17;99811.44;99797;1287;138336;-79
2022/10/24 16:41:07;;;;;;;22.70;10.30;;;;;;;15.17;77.32;99804.66;100023;1281;108913;-81
2022/10/24 16:43:34;;;;;;;22.90;11.80;;;;;;;15.20;77.40;99806.83;100012;1289;107411;-83
2022/10/24 16:46:14;;;;;;;18.80;10.90;;;;;;;15.20;77.41;99806.64;99831;1290;137337;-82
2022/10/24 16:48:41;;;;;;;15.00;10.60;;;;;;;15.18;77.47;99806.58;99962;1281;107094;-81
2022/10/24 16:51:12;;;;;;;19.00;11.60;;;;;;;15.15;77.61;99806.36;99846;1295;139012;-82
2022/10/24 16:53:39;;;;;;;17.50;10.70;;;;;;;15.11;77.72;99803.27;99968;1282;111378;-82
2022/10/24 16:56:08;;;;;;;15.20;10.80;;;;;;;15.08;77.79;99807.30;99863;1281;138343;-81
2022/10/24 16:58:36;;;;;;;18.90;10.50;;;;;;;15.04;77.98;99810.12;100918;1296;95021;-80
2022/10/24 17:01:08;;;;;;;17.90;11.20;;;;;;;15.02;78.04;99812.88;101519;1291;107599;-79
2022/10/24 17:03:36;;;;;;;23.70;11.20;;;;;;;15.00;78.21;99812.34;101319;1291;138990;-81
2022/10/24 17:06:03;;;;;;;20.20;12.40;;;;;;;14.97;78.39;99811.77;101319;1291;111048;-80
2022/10/24 17:08:31;;;;;;;20.60;12.70;;;;;;;14.95;78.53;99809.48;100155;1298;138391;-81
2022/10/24 17:10:59;;;;;;;21.20;12.80;;;;;;;14.93;78.62;99816.42;100057;1289;96958;-83
2022/10/24 17:13:27;;;;;;;26.70;13.10;;;;;;;14.91;78.82;99815.47;100077;1287;107458;-85
2022/10/24 17:15:55;;;;;;;27.70;13.40;;;;;;;14.86;78.89;99814.72;100199;1284;139984;-85
2022/10/24 17:18:24;;;;;;;23.90;14.10;;;;;;;14.86;79.07;99822.41;101352;1286;111389;-82
2022/10/24 17:20:57;;;;;;;30.40;14.10;;;;;;;14.83;79.24;99823.46;101286;1296;138167;-84
2022/10/24 17:23:25;;;;;;;27.50;14.20;;;;;;;14.80;79.36;99825.72;101491;1284;94882;-82
2022/10/24 17:25:53;;;;;;;23.80;13.70;;;;;;;14.78;79.56;99823.90;101391;1289;138283;-84
2022/10/24 17:28:20;;;;;;;28.60;14.60;;;;;;;14.77;79.57;99819.76;101528;1288;95073;-84
2022/10/24 17:30:48;;;;;;;21.40;13.20;;;;;;;14.74;79.69;99817.50;101572;1290;109242;-83
2022/10/24 17:33:16;;;;;;;22.70;13.60;;;;;;;14.72;79.81;99816.19;100041;1295;138308;-83
2022/10/24 17:35:46;;;;;;;22.10;14.30;;;;;;;14.69;79.98;99815.45;100365;1290;95497;-80
2022/10/24 17:38:40;;;;;;;24.10;13.70;;;;;;;14.67;80.12;99811.02;99782;1291;138384;-82
2022/10/24 17:41:17;;;;;;;22.80;13.70;;;;;;;14.65;80.32;99813.60;101081;1285;94598;-82
2022/10/24 17:43:44;;;;;;;;;;;;;;;14.63;80.53;99811.99;101515;1291;109427;-82
2022/10/24 17:46:14;;;;;;;17.50;12.60;;;;;;;14.58;80.64;99806.13;101524;1289;108983;-81
2022/10/24 17:48:42;;;;;;;24.00;13.90;;;;;;;14.56;80.70;99809.58;101494;1289;95844;-81
2022/10/24 17:51:13;;;;;;;26.60;14.30;;;;;;;14.55;80.91;99803.70;101411;1288;139383;-78